Terminal Aerodrome Forecast
Issued by NWS Louisville, KY

Home | Current Version | Previous Version | Text Only | Print | Product List | Glossary On
Versions: 1 2 3 4 5 6 7 8 9 10 11 12 13 14 15 16 17 18 19 20 21 22 23 24 25 26
269
FTUS43 KLMK 142047 AAA
TAFBWG
TAF AMD
KBWG 142047Z 1421/1518 30004KT 5SM -RA BR OVC006
     FM142300 34003KT 4SM -DZ BR OVC003
     FM150400 01003KT 1SM -DZ BR OVC002
     FM151500 05003KT 5SM -DZ BR OVC004=

USA.gov is the U.S. government's official web portal to all federal, state and local government web resources and services.